sensor_id;sensor_type;location;lat;lon;timestamp;pressure;altitude;pressure_sealevel;temperature;humidity
74790;BME280;63318;52.406;13.416;2022-12-20T00:01:14;101508.56;;;3.41;86.39
74790;BME280;63318;52.406;13.416;2022-12-20T00:03:43;101502.65;;;3.42;86.37
74790;BME280;63318;52.406;13.416;2022-12-20T00:06:11;101503.83;;;3.42;86.38
74790;BME280;63318;52.406;13.416;2022-12-20T00:08:40;101511.06;;;3.44;86.35
74790;BME280;63318;52.406;13.416;2022-12-20T00:11:09;101510.77;;;3.45;86.43
74790;BME280;63318;52.406;13.416;2022-12-20T00:13:38;101506.84;;;3.47;86.23
74790;BME280;63318;52.406;13.416;2022-12-20T00:16:08;101500.55;;;3.50;86.24
74790;BME280;63318;52.406;13.416;2022-12-20T00:18:38;101494.96;;;3.51;86.26
74790;BME280;63318;52.406;13.416;2022-12-20T00:21:10;101492.14;;;3.51;86.38
74790;BME280;63318;52.406;13.416;2022-12-20T00:23:39;101494.92;;;3.54;86.19
74790;BME280;63318;52.406;13.416;2022-12-20T00:26:09;101495.82;;;3.57;86.16
74790;BME280;63318;52.406;13.416;2022-12-20T00:28:39;101501.56;;;3.59;86.15
74790;BME280;63318;52.406;13.416;2022-12-20T00:31:09;101497.56;;;3.62;86.11
74790;BME280;63318;52.406;13.416;2022-12-20T00:33:39;101491.39;;;3.62;86.20
74790;BME280;63318;52.406;13.416;2022-12-20T00:36:08;101475.76;;;3.63;86.15
74790;BME280;63318;52.406;13.416;2022-12-20T00:38:37;101471.02;;;3.65;86.26
74790;BME280;63318;52.406;13.416;2022-12-20T00:41:07;101470.77;;;3.71;86.18
74790;BME280;63318;52.406;13.416;2022-12-20T00:43:36;101480.86;;;3.70;85.84
74790;BME280;63318;52.406;13.416;2022-12-20T00:46:06;101483.78;;;3.68;85.88
74790;BME280;63318;52.406;13.416;2022-12-20T00:48:35;101490.30;;;3.69;86.01
74790;BME280;63318;52.406;13.416;2022-12-20T00:51:05;101482.42;;;3.69;85.85
74790;BME280;63318;52.406;13.416;2022-12-20T00:53:34;101483.70;;;3.69;85.89
74790;BME280;63318;52.406;13.416;2022-12-20T00:56:04;101483.86;;;3.68;85.94
74790;BME280;63318;52.406;13.416;2022-12-20T00:58:33;101488.77;;;3.67;85.74
74790;BME280;63318;52.406;13.416;2022-12-20T01:01:02;101480.31;;;3.67;85.77
74790;BME280;63318;52.406;13.416;2022-12-20T01:03:31;101473.94;;;3.67;85.77
74790;BME280;63318;52.406;13.416;2022-12-20T01:06:01;101473.17;;;3.67;85.63
74790;BME280;63318;52.406;13.416;2022-12-20T01:08:30;101476.98;;;3.66;85.66
74790;BME280;63318;52.406;13.416;2022-12-20T01:11:03;101479.94;;;3.66;85.79
74790;BME280;63318;52.406;13.416;2022-12-20T01:13:33;101477.19;;;3.64;85.62
74790;BME280;63318;52.406;13.416;2022-12-20T01:16:06;101479.68;;;3.65;85.64
74790;BME280;63318;52.406;13.416;2022-12-20T01:18:35;101477.98;;;3.64;85.64
74790;BME280;63318;52.406;13.416;2022-12-20T01:21:06;101484.14;;;3.63;85.56
74790;BME280;63318;52.406;13.416;2022-12-20T01:23:34;101481.58;;;3.63;85.36
74790;BME280;63318;52.406;13.416;2022-12-20T01:26:05;101480.45;;;3.62;85.55
74790;BME280;63318;52.406;13.416;2022-12-20T01:28:34;101482.01;;;3.61;85.42
74790;BME280;63318;52.406;13.416;2022-12-20T01:31:03;101490.17;;;3.62;85.59
74790;BME280;63318;52.406;13.416;2022-12-20T01:33:32;101481.80;;;3.63;85.52
74790;BME280;63318;52.406;13.416;2022-12-20T01:36:02;101481.33;;;3.64;85.59
74790;BME280;63318;52.406;13.416;2022-12-20T01:38:31;101478.12;;;3.64;85.42
74790;BME280;63318;52.406;13.416;2022-12-20T01:41:00;101480.36;;;3.64;85.32
74790;BME280;63318;52.406;13.416;2022-12-20T01:43:47;101475.16;;;3.63;85.32
74790;BME280;63318;52.406;13.416;2022-12-20T01:46:15;101469.23;;;3.64;85.43
74790;BME280;63318;52.406;13.416;2022-12-20T01:48:47;101469.52;;;3.65;85.45
74790;BME280;63318;52.406;13.416;2022-12-20T01:51:17;101463.54;;;3.65;85.27
74790;BME280;63318;52.406;13.416;2022-12-20T01:53:46;101456.35;;;3.65;85.35
74790;BME280;63318;52.406;13.416;2022-12-20T01:56:15;101456.56;;;3.66;85.37
74790;BME280;63318;52.406;13.416;2022-12-20T01:58:45;101457.70;;;3.68;85.33
74790;BME280;63318;52.406;13.416;2022-12-20T02:01:17;101458.69;;;3.68;85.25
74790;BME280;63318;52.406;13.416;2022-12-20T02:03:46;101455.50;;;3.69;85.25
74790;BME280;63318;52.406;13.416;2022-12-20T02:06:19;101454.62;;;3.69;85.18
74790;BME280;63318;52.406;13.416;2022-12-20T02:08:50;101451.91;;;3.70;85.20
74790;BME280;63318;52.406;13.416;2022-12-20T02:11:34;101452.55;;;3.70;85.12
74790;BME280;63318;52.406;13.416;2022-12-20T02:14:17;101447.66;;;3.71;85.26
74790;BME280;63318;52.406;13.416;2022-12-20T02:16:52;101446.38;;;3.74;85.13
74790;BME280;63318;52.406;13.416;2022-12-20T02:22:32;101450.90;;;3.77;85.23
74790;BME280;63318;52.406;13.416;2022-12-20T02:28:11;101453.86;;;3.83;85.08
74790;BME280;63318;52.406;13.416;2022-12-20T02:30:45;101454.57;;;3.84;85.12
74790;BME280;63318;52.406;13.416;2022-12-20T02:33:14;101446.62;;;3.88;85.06
74790;BME280;63318;52.406;13.416;2022-12-20T02:35:43;101443.40;;;3.91;85.02
74790;BME280;63318;52.406;13.416;2022-12-20T02:41:12;101437.59;;;3.96;84.65
74790;BME280;63318;52.406;13.416;2022-12-20T02:43:45;101439.63;;;3.97;84.75
74790;BME280;63318;52.406;13.416;2022-12-20T02:46:16;101431.66;;;4.01;84.71
74790;BME280;63318;52.406;13.416;2022-12-20T02:48:47;101419.77;;;4.04;84.91
74790;BME280;63318;52.406;13.416;2022-12-20T02:51:17;101427.01;;;4.07;84.69
74790;BME280;63318;52.406;13.416;2022-12-20T02:53:47;101429.23;;;4.09;84.63
74790;BME280;63318;52.406;13.416;2022-12-20T02:56:19;101417.56;;;4.11;84.60
74790;BME280;63318;52.406;13.416;2022-12-20T02:58:52;101414.73;;;4.14;84.51
74790;BME280;63318;52.406;13.416;2022-12-20T03:01:25;101408.32;;;4.18;84.48
74790;BME280;63318;52.406;13.416;2022-12-20T03:03:55;101413.09;;;4.21;84.39
74790;BME280;63318;52.406;13.416;2022-12-20T03:06:24;101403.57;;;4.25;84.37
74790;BME280;63318;52.406;13.416;2022-12-20T03:08:53;101396.84;;;4.26;84.42
74790;BME280;63318;52.406;13.416;2022-12-20T03:11:21;101393.10;;;4.29;84.09
74790;BME280;63318;52.406;13.416;2022-12-20T03:13:49;101393.21;;;4.31;84.20
74790;BME280;63318;52.406;13.416;2022-12-20T03:16:18;101392.07;;;4.34;84.05
74790;BME280;63318;52.406;13.416;2022-12-20T03:18:46;101388.04;;;4.33;84.14
74790;BME280;63318;52.406;13.416;2022-12-20T03:21:14;101388.00;;;4.34;84.11
74790;BME280;63318;52.406;13.416;2022-12-20T03:23:42;101388.60;;;4.33;84.08
74790;BME280;63318;52.406;13.416;2022-12-20T03:26:12;101393.30;;;4.34;84.20
74790;BME280;63318;52.406;13.416;2022-12-20T03:28:40;101393.50;;;4.34;83.83
74790;BME280;63318;52.406;13.416;2022-12-20T03:31:09;101396.09;;;4.32;83.84
74790;BME280;63318;52.406;13.416;2022-12-20T03:33:37;101383.11;;;4.31;83.63
74790;BME280;63318;52.406;13.416;2022-12-20T03:36:05;101385.77;;;4.33;83.65
74790;BME280;63318;52.406;13.416;2022-12-20T03:38:34;101383.05;;;4.32;83.61
74790;BME280;63318;52.406;13.416;2022-12-20T03:41:02;101379.42;;;4.31;83.54
74790;BME280;63318;52.406;13.416;2022-12-20T03:43:30;101388.48;;;4.32;83.61
74790;BME280;63318;52.406;13.416;2022-12-20T03:45:59;101394.60;;;4.32;83.65
74790;BME280;63318;52.406;13.416;2022-12-20T03:48:27;101405.09;;;4.32;83.60
74790;BME280;63318;52.406;13.416;2022-12-20T03:50:55;101413.02;;;4.33;83.62
74790;BME280;63318;52.406;13.416;2022-12-20T03:53:24;101407.34;;;4.33;83.70
74790;BME280;63318;52.406;13.416;2022-12-20T03:55:52;101402.64;;;4.34;83.56
74790;BME280;63318;52.406;13.416;2022-12-20T03:58:20;101400.65;;;4.35;83.53
74790;BME280;63318;52.406;13.416;2022-12-20T04:00:48;101396.71;;;4.36;83.45
74790;BME280;63318;52.406;13.416;2022-12-20T04:03:17;101397.39;;;4.36;83.47
74790;BME280;63318;52.406;13.416;2022-12-20T04:05:45;101397.81;;;4.37;83.50
74790;BME280;63318;52.406;13.416;2022-12-20T04:08:13;101385.19;;;4.38;83.42
74790;BME280;63318;52.406;13.416;2022-12-20T04:10:41;101389.30;;;4.39;83.47
74790;BME280;63318;52.406;13.416;2022-12-20T04:13:09;101398.26;;;4.40;83.50
74790;BME280;63318;52.406;13.416;2022-12-20T04:15:37;101397.41;;;4.41;83.42
74790;BME280;63318;52.406;13.416;2022-12-20T04:18:06;101396.47;;;4.42;83.41
74790;BME280;63318;52.406;13.416;2022-12-20T04:20:34;101397.36;;;4.42;83.41
74790;BME280;63318;52.406;13.416;2022-12-20T04:23:02;101396.64;;;4.42;83.46
74790;BME280;63318;52.406;13.416;2022-12-20T04:25:30;101392.66;;;4.43;83.36
74790;BME280;63318;52.406;13.416;2022-12-20T04:27:59;101384.66;;;4.43;83.43
74790;BME280;63318;52.406;13.416;2022-12-20T04:30:27;101376.38;;;4.43;83.26
74790;BME280;63318;52.406;13.416;2022-12-20T04:32:55;101373.23;;;4.42;83.29
74790;BME280;63318;52.406;13.416;2022-12-20T04:35:23;101375.02;;;4.41;83.21
74790;BME280;63318;52.406;13.416;2022-12-20T04:37:51;101370.75;;;4.40;83.08
74790;BME280;63318;52.406;13.416;2022-12-20T04:40:20;101359.98;;;4.39;83.20
74790;BME280;63318;52.406;13.416;2022-12-20T04:42:48;101366.80;;;4.37;83.05
74790;BME280;63318;52.406;13.416;2022-12-20T04:45:16;101373.70;;;4.36;83.19
74790;BME280;63318;52.406;13.416;2022-12-20T04:47:44;101384.87;;;4.35;83.07
74790;BME280;63318;52.406;13.416;2022-12-20T04:50:13;101375.90;;;4.34;83.10
74790;BME280;63318;52.406;13.416;2022-12-20T04:52:41;101368.80;;;4.34;83.02
74790;BME280;63318;52.406;13.416;2022-12-20T04:55:10;101368.63;;;4.32;83.10
74790;BME280;63318;52.406;13.416;2022-12-20T04:57:38;101369.82;;;4.30;83.08
74790;BME280;63318;52.406;13.416;2022-12-20T05:00:08;101366.40;;;4.29;83.14
74790;BME280;63318;52.406;13.416;2022-12-20T05:02:36;101365.52;;;4.27;83.00
74790;BME280;63318;52.406;13.416;2022-12-20T05:05:06;101371.80;;;4.27;83.11
74790;BME280;63318;52.406;13.416;2022-12-20T05:07:34;101379.27;;;4.27;83.01
74790;BME280;63318;52.406;13.416;2022-12-20T05:10:02;101368.86;;;4.26;83.03
74790;BME280;63318;52.406;13.416;2022-12-20T05:12:31;101363.75;;;4.27;83.18
74790;BME280;63318;52.406;13.416;2022-12-20T05:14:59;101360.11;;;4.26;83.06
74790;BME280;63318;52.406;13.416;2022-12-20T05:17:28;101364.93;;;4.26;83.01
74790;BME280;63318;52.406;13.416;2022-12-20T05:19:56;101367.52;;;4.26;82.96
74790;BME280;63318;52.406;13.416;2022-12-20T05:22:24;101362.99;;;4.25;83.16
74790;BME280;63318;52.406;13.416;2022-12-20T05:24:52;101364.89;;;4.29;83.07
74790;BME280;63318;52.406;13.416;2022-12-20T05:27:21;101366.66;;;4.29;83.02
74790;BME280;63318;52.406;13.416;2022-12-20T05:29:49;101372.06;;;4.31;83.18
74790;BME280;63318;52.406;13.416;2022-12-20T05:32:17;101367.14;;;4.33;83.01
74790;BME280;63318;52.406;13.416;2022-12-20T05:34:45;101361.14;;;4.33;83.13
74790;BME280;63318;52.406;13.416;2022-12-20T05:37:13;101358.23;;;4.33;83.20
74790;BME280;63318;52.406;13.416;2022-12-20T05:39:42;101354.48;;;4.33;83.12
74790;BME280;63318;52.406;13.416;2022-12-20T05:42:10;101357.16;;;4.34;83.16
74790;BME280;63318;52.406;13.416;2022-12-20T05:44:38;101355.22;;;4.34;83.23
74790;BME280;63318;52.406;13.416;2022-12-20T05:47:06;101350.39;;;4.34;83.25
74790;BME280;63318;52.406;13.416;2022-12-20T05:49:34;101350.82;;;4.33;83.18
74790;BME280;63318;52.406;13.416;2022-12-20T05:52:03;101350.05;;;4.34;83.28
74790;BME280;63318;52.406;13.416;2022-12-20T05:54:31;101346.16;;;4.34;83.13
74790;BME280;63318;52.406;13.416;2022-12-20T05:57:00;101342.32;;;4.34;83.27
74790;BME280;63318;52.406;13.416;2022-12-20T05:59:28;101347.84;;;4.35;83.22
74790;BME280;63318;52.406;13.416;2022-12-20T06:01:56;101348.23;;;4.35;83.35
74790;BME280;63318;52.406;13.416;2022-12-20T06:04:25;101340.82;;;4.36;83.66
74790;BME280;63318;52.406;13.416;2022-12-20T06:06:53;101338.70;;;4.35;83.57
74790;BME280;63318;52.406;13.416;2022-12-20T06:09:21;101341.67;;;4.34;83.65
74790;BME280;63318;52.406;13.416;2022-12-20T06:11:49;101339.51;;;4.35;83.60
74790;BME280;63318;52.406;13.416;2022-12-20T06:14:18;101344.09;;;4.34;83.83
74790;BME280;63318;52.406;13.416;2022-12-20T06:16:46;101342.47;;;4.36;83.79
74790;BME280;63318;52.406;13.416;2022-12-20T06:19:14;101343.36;;;4.36;83.76
74790;BME280;63318;52.406;13.416;2022-12-20T06:21:43;101350.67;;;4.37;83.92
74790;BME280;63318;52.406;13.416;2022-12-20T06:24:11;101356.50;;;4.39;83.83
74790;BME280;63318;52.406;13.416;2022-12-20T06:26:39;101358.70;;;4.40;83.86
74790;BME280;63318;52.406;13.416;2022-12-20T06:29:08;101361.94;;;4.42;83.98
74790;BME280;63318;52.406;13.416;2022-12-20T06:31:36;101370.40;;;4.44;83.96
74790;BME280;63318;52.406;13.416;2022-12-20T06:34:04;101369.54;;;4.46;84.00
74790;BME280;63318;52.406;13.416;2022-12-20T06:36:33;101361.44;;;4.49;83.97
74790;BME280;63318;52.406;13.416;2022-12-20T06:39:01;101359.73;;;4.50;84.11
74790;BME280;63318;52.406;13.416;2022-12-20T06:41:29;101368.98;;;4.53;84.03
74790;BME280;63318;52.406;13.416;2022-12-20T06:43:57;101370.27;;;4.55;84.07
74790;BME280;63318;52.406;13.416;2022-12-20T06:46:25;101370.29;;;4.57;84.07
74790;BME280;63318;52.406;13.416;2022-12-20T06:48:56;101371.51;;;4.59;84.14
74790;BME280;63318;52.406;13.416;2022-12-20T06:51:25;101372.31;;;4.60;84.30
74790;BME280;63318;52.406;13.416;2022-12-20T06:53:53;101379.27;;;4.62;84.45
74790;BME280;63318;52.406;13.416;2022-12-20T06:56:21;101385.54;;;4.63;84.33
74790;BME280;63318;52.406;13.416;2022-12-20T06:58:49;101386.16;;;4.65;84.44
74790;BME280;63318;52.406;13.416;2022-12-20T07:01:19;101382.52;;;4.66;84.45
74790;BME280;63318;52.406;13.416;2022-12-20T07:03:48;101379.25;;;4.67;84.67
74790;BME280;63318;52.406;13.416;2022-12-20T07:06:16;101375.86;;;4.68;84.67
74790;BME280;63318;52.406;13.416;2022-12-20T07:08:44;101380.89;;;4.69;84.73
74790;BME280;63318;52.406;13.416;2022-12-20T07:11:13;101378.77;;;4.72;84.75
74790;BME280;63318;52.406;13.416;2022-12-20T07:13:42;101375.14;;;4.74;84.67
74790;BME280;63318;52.406;13.416;2022-12-20T07:16:10;101367.09;;;4.74;84.78
74790;BME280;63318;52.406;13.416;2022-12-20T07:18:38;101369.93;;;4.74;84.99
74790;BME280;63318;52.406;13.416;2022-12-20T07:21:07;101367.48;;;4.75;84.95
74790;BME280;63318;52.406;13.416;2022-12-20T07:23:36;101374.63;;;4.76;85.00
74790;BME280;63318;52.406;13.416;2022-12-20T07:26:04;101380.02;;;4.78;84.91
74790;BME280;63318;52.406;13.416;2022-12-20T07:28:32;101376.64;;;4.80;85.05
74790;BME280;63318;52.406;13.416;2022-12-20T07:31:02;101380.23;;;4.82;85.08
74790;BME280;63318;52.406;13.416;2022-12-20T07:33:31;101375.94;;;4.84;85.25
74790;BME280;63318;52.406;13.416;2022-12-20T07:36:02;101385.41;;;4.85;85.25
74790;BME280;63318;52.406;13.416;2022-12-20T07:40:59;101386.36;;;4.89;85.32
74790;BME280;63318;52.406;13.416;2022-12-20T07:43:27;101388.46;;;4.91;85.52
74790;BME280;63318;52.406;13.416;2022-12-20T07:45:56;101388.91;;;4.93;85.50
74790;BME280;63318;52.406;13.416;2022-12-20T07:48:24;101390.92;;;4.98;85.53
74790;BME280;63318;52.406;13.416;2022-12-20T07:50:54;101389.14;;;4.99;85.50
74790;BME280;63318;52.406;13.416;2022-12-20T07:53:25;101397.30;;;5.00;85.43
74790;BME280;63318;52.406;13.416;2022-12-20T07:55:55;101397.52;;;5.01;85.63
74790;BME280;63318;52.406;13.416;2022-12-20T07:58:24;101392.76;;;5.02;85.65
74790;BME280;63318;52.406;13.416;2022-12-20T08:00:53;101391.40;;;5.02;85.76
74790;BME280;63318;52.406;13.416;2022-12-20T08:03:24;101393.73;;;5.03;85.81
74790;BME280;63318;52.406;13.416;2022-12-20T08:05:57;101393.43;;;5.04;85.90
74790;BME280;63318;52.406;13.416;2022-12-20T08:08:26;101392.33;;;5.04;86.13
74790;BME280;63318;52.406;13.416;2022-12-20T08:10:54;101392.66;;;5.04;86.01
74790;BME280;63318;52.406;13.416;2022-12-20T08:13:23;101396.45;;;5.04;86.01
74790;BME280;63318;52.406;13.416;2022-12-20T08:15:51;101400.58;;;5.04;86.21
74790;BME280;63318;52.406;13.416;2022-12-20T08:18:19;101398.29;;;5.04;86.18
74790;BME280;63318;52.406;13.416;2022-12-20T08:20:47;101402.43;;;5.05;86.15
74790;BME280;63318;52.406;13.416;2022-12-20T08:23:15;101401.80;;;5.05;86.12
74790;BME280;63318;52.406;13.416;2022-12-20T08:25:44;101397.60;;;5.06;86.27
74790;BME280;63318;52.406;13.416;2022-12-20T08:28:12;101393.45;;;5.07;86.31
74790;BME280;63318;52.406;13.416;2022-12-20T08:30:40;101391.78;;;5.07;86.52
74790;BME280;63318;52.406;13.416;2022-12-20T08:33:08;101390.05;;;5.08;86.57
74790;BME280;63318;52.406;13.416;2022-12-20T08:35:36;101387.34;;;5.09;86.63
74790;BME280;63318;52.406;13.416;2022-12-20T08:38:05;101378.73;;;5.10;86.75
74790;BME280;63318;52.406;13.416;2022-12-20T08:40:33;101370.70;;;5.11;86.73
74790;BME280;63318;52.406;13.416;2022-12-20T08:43:01;101372.06;;;5.11;86.80
74790;BME280;63318;52.406;13.416;2022-12-20T08:45:29;101374.01;;;5.12;86.77
74790;BME280;63318;52.406;13.416;2022-12-20T08:47:57;101369.35;;;5.12;86.73
74790;BME280;63318;52.406;13.416;2022-12-20T08:50:26;101374.00;;;5.13;86.90
74790;BME280;63318;52.406;13.416;2022-12-20T08:52:55;101385.09;;;5.14;86.88
74790;BME280;63318;52.406;13.416;2022-12-20T08:55:23;101390.11;;;5.16;86.84
74790;BME280;63318;52.406;13.416;2022-12-20T08:57:51;101387.35;;;5.17;87.02
74790;BME280;63318;52.406;13.416;2022-12-20T09:00:23;101391.38;;;5.19;86.90
74790;BME280;63318;52.406;13.416;2022-12-20T09:02:52;101389.59;;;5.20;87.03
74790;BME280;63318;52.406;13.416;2022-12-20T09:05:21;101380.89;;;5.21;87.02
74790;BME280;63318;52.406;13.416;2022-12-20T09:07:49;101374.98;;;5.23;87.21
74790;BME280;63318;52.406;13.416;2022-12-20T09:10:17;101374.13;;;5.25;87.26
74790;BME280;63318;52.406;13.416;2022-12-20T09:12:46;101377.70;;;5.28;87.14
74790;BME280;63318;52.406;13.416;2022-12-20T09:15:15;101371.83;;;5.30;87.35
74790;BME280;63318;52.406;13.416;2022-12-20T09:17:43;101369.14;;;5.34;87.30
74790;BME280;63318;52.406;13.416;2022-12-20T09:20:12;101365.42;;;5.41;87.20
74790;BME280;63318;52.406;13.416;2022-12-20T09:22:40;101364.39;;;5.43;87.18
74790;BME280;63318;52.406;13.416;2022-12-20T09:25:09;101366.11;;;5.45;87.19
74790;BME280;63318;52.406;13.416;2022-12-20T09:27:38;101369.21;;;5.48;87.30
74790;BME280;63318;52.406;13.416;2022-12-20T09:30:08;101368.20;;;5.51;87.37
74790;BME280;63318;52.406;13.416;2022-12-20T09:32:37;101370.64;;;5.55;87.47
74790;BME280;63318;52.406;13.416;2022-12-20T09:35:07;101371.80;;;5.61;87.41
74790;BME280;63318;52.406;13.416;2022-12-20T09:37:35;101369.63;;;5.67;87.42
74790;BME280;63318;52.406;13.416;2022-12-20T09:40:05;101370.52;;;5.73;87.44
74790;BME280;63318;52.406;13.416;2022-12-20T09:42:36;101362.19;;;5.78;87.62
74790;BME280;63318;52.406;13.416;2022-12-20T09:45:07;101366.00;;;5.84;87.63
74790;BME280;63318;52.406;13.416;2022-12-20T09:47:38;101362.35;;;5.90;87.69
74790;BME280;63318;52.406;13.416;2022-12-20T09:50:10;101353.67;;;5.97;87.60
74790;BME280;63318;52.406;13.416;2022-12-20T09:52:56;101357.92;;;6.02;87.54
74790;BME280;63318;52.406;13.416;2022-12-20T09:55:33;101349.06;;;6.09;87.63
74790;BME280;63318;52.406;13.416;2022-12-20T09:58:17;101352.23;;;6.14;87.57
74790;BME280;63318;52.406;13.416;2022-12-20T10:00:52;101357.41;;;6.21;87.61
74790;BME280;63318;52.406;13.416;2022-12-20T10:03:23;101352.70;;;6.28;87.58
74790;BME280;63318;52.406;13.416;2022-12-20T10:05:54;101352.58;;;6.38;87.79
74790;BME280;63318;52.406;13.416;2022-12-20T10:08:35;101353.13;;;6.45;87.40
74790;BME280;63318;52.406;13.416;2022-12-20T10:11:10;101351.80;;;6.51;87.42
74790;BME280;63318;52.406;13.416;2022-12-20T10:13:53;101352.25;;;6.59;87.20
74790;BME280;63318;52.406;13.416;2022-12-20T10:16:36;101355.55;;;6.62;87.21
74790;BME280;63318;52.406;13.416;2022-12-20T10:19:20;101349.80;;;6.67;87.30
74790;BME280;63318;52.406;13.416;2022-12-20T10:21:56;101350.27;;;6.73;87.10
74790;BME280;63318;52.406;13.416;2022-12-20T10:24:31;101347.77;;;6.76;86.95
74790;BME280;63318;52.406;13.416;2022-12-20T10:27:10;101342.45;;;6.79;86.98
74790;BME280;63318;52.406;13.416;2022-12-20T10:29:39;101342.86;;;6.85;86.92
74790;BME280;63318;52.406;13.416;2022-12-20T10:32:14;101334.91;;;6.88;86.88
74790;BME280;63318;52.406;13.416;2022-12-20T10:34:46;101330.98;;;6.92;86.87
74790;BME280;63318;52.406;13.416;2022-12-20T10:37:17;101328.08;;;6.99;86.96
74790;BME280;63318;52.406;13.416;2022-12-20T10:39:48;101319.34;;;7.06;86.69
74790;BME280;63318;52.406;13.416;2022-12-20T10:42:29;101312.54;;;7.12;86.66
74790;BME280;63318;52.406;13.416;2022-12-20T10:45:01;101302.02;;;7.18;86.82
74790;BME280;63318;52.406;13.416;2022-12-20T10:47:36;101301.27;;;7.25;86.74
74790;BME280;63318;52.406;13.416;2022-12-20T10:50:14;101298.10;;;7.33;86.35
74790;BME280;63318;52.406;13.416;2022-12-20T10:52:43;101300.58;;;7.37;86.45
74790;BME280;63318;52.406;13.416;2022-12-20T10:55:35;101296.53;;;7.39;86.12
74790;BME280;63318;52.406;13.416;2022-12-20T10:58:14;101289.79;;;7.41;86.06
74790;BME280;63318;52.406;13.416;2022-12-20T11:00:43;101281.85;;;7.42;86.00
74790;BME280;63318;52.406;13.416;2022-12-20T11:03:16;101279.23;;;7.46;86.02
74790;BME280;63318;52.406;13.416;2022-12-20T11:05:56;101271.44;;;7.49;85.79
74790;BME280;63318;52.406;13.416;2022-12-20T11:08:25;101273.25;;;7.50;85.74
74790;BME280;63318;52.406;13.416;2022-12-20T11:11:11;101270.77;;;7.53;85.65
74790;BME280;63318;52.406;13.416;2022-12-20T11:13:40;101262.67;;;7.58;85.60
74790;BME280;63318;52.406;13.416;2022-12-20T11:16:23;101254.34;;;7.60;85.04
74790;BME280;63318;52.406;13.416;2022-12-20T11:19:02;101248.16;;;7.60;85.19
74790;BME280;63318;52.406;13.416;2022-12-20T11:21:40;101245.93;;;7.62;85.15
74790;BME280;63318;52.406;13.416;2022-12-20T11:24:13;101246.41;;;7.64;85.16
74790;BME280;63318;52.406;13.416;2022-12-20T11:26:54;101244.80;;;7.66;84.97
74790;BME280;63318;52.406;13.416;2022-12-20T11:29:50;101237.61;;;7.70;84.88
74790;BME280;63318;52.406;13.416;2022-12-20T11:32:32;101233.91;;;7.71;84.53
74790;BME280;63318;52.406;13.416;2022-12-20T11:35:12;101223.16;;;7.75;84.77
74790;BME280;63318;52.406;13.416;2022-12-20T11:37:41;101222.95;;;7.79;84.61
74790;BME280;63318;52.406;13.416;2022-12-20T11:40:28;101217.45;;;7.80;84.61
74790;BME280;63318;52.406;13.416;2022-12-20T11:43:06;101210.16;;;7.81;84.23
74790;BME280;63318;52.406;13.416;2022-12-20T11:45:44;101213.18;;;7.85;84.26
74790;BME280;63318;52.406;13.416;2022-12-20T11:48:29;101209.73;;;7.89;84.04
74790;BME280;63318;52.406;13.416;2022-12-20T11:51:11;101206.53;;;7.89;83.98
74790;BME280;63318;52.406;13.416;2022-12-20T11:53:55;101197.69;;;7.90;84.18
74790;BME280;63318;52.406;13.416;2022-12-20T11:56:29;101197.24;;;7.90;83.91
74790;BME280;63318;52.406;13.416;2022-12-20T11:59:01;101200.70;;;7.89;84.07
74790;BME280;63318;52.406;13.416;2022-12-20T12:01:36;101200.57;;;7.87;84.00
74790;BME280;63318;52.406;13.416;2022-12-20T12:04:13;101211.87;;;7.86;83.83
74790;BME280;63318;52.406;13.416;2022-12-20T12:06:44;101208.37;;;7.83;83.77
74790;BME280;63318;52.406;13.416;2022-12-20T12:09:19;101203.40;;;7.83;83.33
74790;BME280;63318;52.406;13.416;2022-12-20T12:11:53;101202.11;;;7.87;83.28
74790;BME280;63318;52.406;13.416;2022-12-20T12:14:44;101199.23;;;7.88;83.30
74790;BME280;63318;52.406;13.416;2022-12-20T12:17:20;101195.53;;;7.88;83.52
74790;BME280;63318;52.406;13.416;2022-12-20T12:19:54;101192.19;;;7.89;83.44
74790;BME280;63318;52.406;13.416;2022-12-20T12:22:28;101191.77;;;7.90;83.71
74790;BME280;63318;52.406;13.416;2022-12-20T12:25:01;101186.91;;;7.91;83.48
74790;BME280;63318;52.406;13.416;2022-12-20T12:27:31;101181.96;;;7.92;83.47
74790;BME280;63318;52.406;13.416;2022-12-20T12:30:00;101185.34;;;7.92;83.31
74790;BME280;63318;52.406;13.416;2022-12-20T12:32:32;101180.75;;;7.92;83.23
74790;BME280;63318;52.406;13.416;2022-12-20T12:35:24;101172.73;;;7.92;83.34
74790;BME280;63318;52.406;13.416;2022-12-20T12:38:19;101171.91;;;7.90;83.16
74790;BME280;63318;52.406;13.416;2022-12-20T12:41:11;101167.70;;;7.89;83.37
74790;BME280;63318;52.406;13.416;2022-12-20T12:43:49;101157.36;;;7.90;83.10
74790;BME280;63318;52.406;13.416;2022-12-20T12:46:21;101157.17;;;7.89;83.00
74790;BME280;63318;52.406;13.416;2022-12-20T12:48:56;101158.95;;;7.91;82.95
74790;BME280;63318;52.406;13.416;2022-12-20T12:51:28;101150.17;;;7.93;82.84
74790;BME280;63318;52.406;13.416;2022-12-20T12:54:15;101151.45;;;7.93;82.66
74790;BME280;63318;52.406;13.416;2022-12-20T12:56:46;101143.70;;;7.94;82.80
74790;BME280;63318;52.406;13.416;2022-12-20T12:59:42;101139.73;;;7.94;82.47
74790;BME280;63318;52.406;13.416;2022-12-20T13:02:51;101145.40;;;7.95;82.61
74790;BME280;63318;52.406;13.416;2022-12-20T13:05:39;101145.50;;;7.97;82.42
74790;BME280;63318;52.406;13.416;2022-12-20T13:08:16;101134.27;;;7.97;82.33
74790;BME280;63318;52.406;13.416;2022-12-20T13:11:01;101134.32;;;7.97;82.52
74790;BME280;63318;52.406;13.416;2022-12-20T13:13:30;101130.49;;;7.96;82.39
74790;BME280;63318;52.406;13.416;2022-12-20T13:16:27;101132.86;;;7.95;82.40
74790;BME280;63318;52.406;13.416;2022-12-20T13:19:09;101130.08;;;7.92;82.07
74790;BME280;63318;52.406;13.416;2022-12-20T13:21:43;101132.53;;;7.90;82.01
74790;BME280;63318;52.406;13.416;2022-12-20T13:24:38;101130.98;;;7.88;81.85